sensor_id;sensor_type;location;lat;lon;timestamp;temperature;humidity
30244;DHT22;64022;53.652;9.792;2023-09-19T00:02:01;25.00;62.40
30244;DHT22;64022;53.652;9.792;2023-09-19T00:04:32;25.00;62.40
30244;DHT22;64022;53.652;9.792;2023-09-19T00:06:58;25.00;62.40
30244;DHT22;64022;53.652;9.792;2023-09-19T00:09:24;25.00;62.30
30244;DHT22;64022;53.652;9.792;2023-09-19T00:11:52;25.00;62.30
30244;DHT22;64022;53.652;9.792;2023-09-19T00:14:18;25.00;62.30
30244;DHT22;64022;53.652;9.792;2023-09-19T00:16:43;24.90;62.20
30244;DHT22;64022;53.652;9.792;2023-09-19T00:19:09;24.90;62.20
30244;DHT22;64022;53.652;9.792;2023-09-19T00:21:35;24.90;62.20
30244;DHT22;64022;53.652;9.792;2023-09-19T00:24:03;25.00;62.20
30244;DHT22;64022;53.652;9.792;2023-09-19T00:26:29;24.90;62.10
30244;DHT22;64022;53.652;9.792;2023-09-19T00:28:56;24.90;62.10
30244;DHT22;64022;53.652;9.792;2023-09-19T00:31:22;24.90;62.00
30244;DHT22;64022;53.652;9.792;2023-09-19T00:33:48;24.90;62.00
30244;DHT22;64022;53.652;9.792;2023-09-19T00:36:14;24.90;62.00
30244;DHT22;64022;53.652;9.792;2023-09-19T00:38:39;24.90;62.00
30244;DHT22;64022;53.652;9.792;2023-09-19T00:41:05;24.90;61.90
30244;DHT22;64022;53.652;9.792;2023-09-19T00:43:30;24.90;61.90
30244;DHT22;64022;53.652;9.792;2023-09-19T00:45:59;24.90;61.90
30244;DHT22;64022;53.652;9.792;2023-09-19T00:48:26;24.90;61.90
30244;DHT22;64022;53.652;9.792;2023-09-19T00:50:54;24.90;61.90
30244;DHT22;64022;53.652;9.792;2023-09-19T00:53:20;24.90;61.80
30244;DHT22;64022;53.652;9.792;2023-09-19T00:55:48;24.90;61.80
30244;DHT22;64022;53.652;9.792;2023-09-19T00:58:15;24.90;61.80
30244;DHT22;64022;53.652;9.792;2023-09-19T01:00:41;24.90;61.80
30244;DHT22;64022;53.652;9.792;2023-09-19T01:03:10;24.90;61.80
30244;DHT22;64022;53.652;9.792;2023-09-19T01:05:35;24.90;62.30
30244;DHT22;64022;53.652;9.792;2023-09-19T01:08:01;24.90;61.70
30244;DHT22;64022;53.652;9.792;2023-09-19T01:10:26;24.90;61.70
30244;DHT22;64022;53.652;9.792;2023-09-19T01:13:05;24.90;61.70
30244;DHT22;64022;53.652;9.792;2023-09-19T01:20:33;24.90;61.60
30244;DHT22;64022;53.652;9.792;2023-09-19T01:25:50;24.80;61.50
30244;DHT22;64022;53.652;9.792;2023-09-19T01:31:02;24.90;61.50
30244;DHT22;64022;53.652;9.792;2023-09-19T01:36:16;24.80;61.40
30244;DHT22;64022;53.652;9.792;2023-09-19T01:38:42;24.80;61.40
30244;DHT22;64022;53.652;9.792;2023-09-19T01:41:09;24.80;61.40
30244;DHT22;64022;53.652;9.792;2023-09-19T01:43:43;24.80;61.40
30244;DHT22;64022;53.652;9.792;2023-09-19T01:46:14;24.80;61.40
30244;DHT22;64022;53.652;9.792;2023-09-19T01:51:09;24.80;61.40
30244;DHT22;64022;53.652;9.792;2023-09-19T01:53:55;24.80;61.40
30244;DHT22;64022;53.652;9.792;2023-09-19T01:56:23;24.80;61.30
30244;DHT22;64022;53.652;9.792;2023-09-19T01:58:51;24.80;61.30
30244;DHT22;64022;53.652;9.792;2023-09-19T02:01:22;24.80;61.30
30244;DHT22;64022;53.652;9.792;2023-09-19T02:03:49;24.80;61.30
30244;DHT22;64022;53.652;9.792;2023-09-19T02:06:15;24.80;61.30
30244;DHT22;64022;53.652;9.792;2023-09-19T02:08:41;24.80;61.20
30244;DHT22;64022;53.652;9.792;2023-09-19T02:11:06;24.80;61.20
30244;DHT22;64022;53.652;9.792;2023-09-19T02:13:31;24.80;61.20
30244;DHT22;64022;53.652;9.792;2023-09-19T02:15:57;24.80;61.20
30244;DHT22;64022;53.652;9.792;2023-09-19T02:18:22;24.80;61.10
30244;DHT22;64022;53.652;9.792;2023-09-19T02:20:48;24.70;61.10
30244;DHT22;64022;53.652;9.792;2023-09-19T02:23:14;24.70;61.10
30244;DHT22;64022;53.652;9.792;2023-09-19T02:25:40;24.70;61.00
30244;DHT22;64022;53.652;9.792;2023-09-19T02:28:06;24.70;61.00
30244;DHT22;64022;53.652;9.792;2023-09-19T02:30:32;24.70;61.00
30244;DHT22;64022;53.652;9.792;2023-09-19T02:32:58;24.70;60.90
30244;DHT22;64022;53.652;9.792;2023-09-19T02:35:26;24.70;60.90
30244;DHT22;64022;53.652;9.792;2023-09-19T02:37:53;24.70;60.90
30244;DHT22;64022;53.652;9.792;2023-09-19T02:40:19;24.70;60.90
30244;DHT22;64022;53.652;9.792;2023-09-19T02:42:48;24.70;60.90
30244;DHT22;64022;53.652;9.792;2023-09-19T02:45:18;24.70;60.90
30244;DHT22;64022;53.652;9.792;2023-09-19T02:47:44;24.70;60.90
30244;DHT22;64022;53.652;9.792;2023-09-19T02:50:10;24.70;60.90
30244;DHT22;64022;53.652;9.792;2023-09-19T02:52:36;24.70;60.90
30244;DHT22;64022;53.652;9.792;2023-09-19T02:55:02;24.70;60.90
30244;DHT22;64022;53.652;9.792;2023-09-19T02:57:29;24.70;60.90
30244;DHT22;64022;53.652;9.792;2023-09-19T02:59:56;24.70;60.90
30244;DHT22;64022;53.652;9.792;2023-09-19T03:02:22;24.70;60.90
30244;DHT22;64022;53.652;9.792;2023-09-19T03:04:49;24.70;60.90
30244;DHT22;64022;53.652;9.792;2023-09-19T03:07:16;24.70;60.90
30244;DHT22;64022;53.652;9.792;2023-09-19T03:09:43;24.70;60.90
30244;DHT22;64022;53.652;9.792;2023-09-19T03:12:08;24.70;60.90
30244;DHT22;64022;53.652;9.792;2023-09-19T03:14:34;24.70;60.90
30244;DHT22;64022;53.652;9.792;2023-09-19T03:17:00;24.70;60.90
30244;DHT22;64022;53.652;9.792;2023-09-19T03:19:26;24.70;60.80
30244;DHT22;64022;53.652;9.792;2023-09-19T03:21:52;24.70;60.80
30244;DHT22;64022;53.652;9.792;2023-09-19T03:24:18;24.70;60.80
30244;DHT22;64022;53.652;9.792;2023-09-19T03:26:44;24.70;60.70
30244;DHT22;64022;53.652;9.792;2023-09-19T03:29:10;24.70;60.70
30244;DHT22;64022;53.652;9.792;2023-09-19T03:31:36;24.70;60.70
30244;DHT22;64022;53.652;9.792;2023-09-19T03:34:02;24.70;60.70
30244;DHT22;64022;53.652;9.792;2023-09-19T03:36:29;24.70;60.60
30244;DHT22;64022;53.652;9.792;2023-09-19T03:38:54;24.70;60.50
30244;DHT22;64022;53.652;9.792;2023-09-19T03:41:20;24.70;60.40
30244;DHT22;64022;53.652;9.792;2023-09-19T03:43:45;24.60;60.30
30244;DHT22;64022;53.652;9.792;2023-09-19T03:46:11;24.60;60.20
30244;DHT22;64022;53.652;9.792;2023-09-19T03:48:37;24.60;60.20
30244;DHT22;64022;53.652;9.792;2023-09-19T03:51:03;24.60;60.10
30244;DHT22;64022;53.652;9.792;2023-09-19T03:53:28;24.50;60.00
30244;DHT22;64022;53.652;9.792;2023-09-19T03:55:54;24.50;60.00
30244;DHT22;64022;53.652;9.792;2023-09-19T03:58:20;24.50;59.90
30244;DHT22;64022;53.652;9.792;2023-09-19T04:00:45;24.50;59.90
30244;DHT22;64022;53.652;9.792;2023-09-19T04:03:11;24.50;59.90
30244;DHT22;64022;53.652;9.792;2023-09-19T04:05:44;24.50;59.80
30244;DHT22;64022;53.652;9.792;2023-09-19T04:08:10;24.50;59.70
30244;DHT22;64022;53.652;9.792;2023-09-19T04:10:36;24.50;59.60
30244;DHT22;64022;53.652;9.792;2023-09-19T04:13:01;24.50;59.60
30244;DHT22;64022;53.652;9.792;2023-09-19T04:15:27;24.40;59.50
30244;DHT22;64022;53.652;9.792;2023-09-19T04:17:52;24.50;59.50
30244;DHT22;64022;53.652;9.792;2023-09-19T04:20:18;24.40;59.40
30244;DHT22;64022;53.652;9.792;2023-09-19T04:22:45;24.40;59.30
30244;DHT22;64022;53.652;9.792;2023-09-19T04:25:11;24.40;59.20
30244;DHT22;64022;53.652;9.792;2023-09-19T04:27:36;24.40;59.10
30244;DHT22;64022;53.652;9.792;2023-09-19T04:30:03;24.40;59.00
30244;DHT22;64022;53.652;9.792;2023-09-19T04:32:34;24.40;58.90
30244;DHT22;64022;53.652;9.792;2023-09-19T04:35:01;24.40;58.70
30244;DHT22;64022;53.652;9.792;2023-09-19T04:37:30;24.30;58.70
30244;DHT22;64022;53.652;9.792;2023-09-19T04:39:56;24.30;58.60
30244;DHT22;64022;53.652;9.792;2023-09-19T04:42:22;24.30;58.50
30244;DHT22;64022;53.652;9.792;2023-09-19T04:44:49;24.30;58.40
30244;DHT22;64022;53.652;9.792;2023-09-19T04:47:15;24.30;58.30
30244;DHT22;64022;53.652;9.792;2023-09-19T04:49:41;24.20;58.10
30244;DHT22;64022;53.652;9.792;2023-09-19T04:52:06;24.20;58.00
30244;DHT22;64022;53.652;9.792;2023-09-19T04:54:32;24.20;58.00
30244;DHT22;64022;53.652;9.792;2023-09-19T04:56:59;24.20;57.90
30244;DHT22;64022;53.652;9.792;2023-09-19T04:59:25;24.20;57.80
30244;DHT22;64022;53.652;9.792;2023-09-19T05:01:50;24.20;57.70
30244;DHT22;64022;53.652;9.792;2023-09-19T05:04:16;24.20;57.60
30244;DHT22;64022;53.652;9.792;2023-09-19T05:06:41;24.20;57.60
30244;DHT22;64022;53.652;9.792;2023-09-19T05:09:07;24.20;57.50
30244;DHT22;64022;53.652;9.792;2023-09-19T05:11:33;24.10;57.40
30244;DHT22;64022;53.652;9.792;2023-09-19T05:13:59;24.10;57.40
30244;DHT22;64022;53.652;9.792;2023-09-19T05:16:29;24.10;57.30
30244;DHT22;64022;53.652;9.792;2023-09-19T05:18:56;24.10;57.20
30244;DHT22;64022;53.652;9.792;2023-09-19T05:21:23;24.10;57.20
30244;DHT22;64022;53.652;9.792;2023-09-19T05:23:51;24.10;57.10
30244;DHT22;64022;53.652;9.792;2023-09-19T05:26:17;24.10;57.00
30244;DHT22;64022;53.652;9.792;2023-09-19T05:28:43;24.10;56.90
30244;DHT22;64022;53.652;9.792;2023-09-19T05:31:08;24.10;56.90
30244;DHT22;64022;53.652;9.792;2023-09-19T05:33:34;24.10;56.80
30244;DHT22;64022;53.652;9.792;2023-09-19T05:35:59;24.10;56.70
30244;DHT22;64022;53.652;9.792;2023-09-19T05:38:25;24.00;56.60
30244;DHT22;64022;53.652;9.792;2023-09-19T05:40:51;24.10;56.50
30244;DHT22;64022;53.652;9.792;2023-09-19T05:43:17;24.00;56.50
30244;DHT22;64022;53.652;9.792;2023-09-19T05:45:43;24.00;56.40
30244;DHT22;64022;53.652;9.792;2023-09-19T05:48:11;24.00;56.30
30244;DHT22;64022;53.652;9.792;2023-09-19T05:50:38;24.00;56.30
30244;DHT22;64022;53.652;9.792;2023-09-19T05:53:04;24.00;56.20
30244;DHT22;64022;53.652;9.792;2023-09-19T05:55:30;24.00;56.10
30244;DHT22;64022;53.652;9.792;2023-09-19T05:57:55;24.00;56.10
30244;DHT22;64022;53.652;9.792;2023-09-19T06:00:21;24.00;56.00
30244;DHT22;64022;53.652;9.792;2023-09-19T06:02:53;24.00;55.90
30244;DHT22;64022;53.652;9.792;2023-09-19T06:05:19;24.00;55.70
30244;DHT22;64022;53.652;9.792;2023-09-19T06:07:45;23.90;55.60
30244;DHT22;64022;53.652;9.792;2023-09-19T06:10:10;23.90;54.50
30244;DHT22;64022;53.652;9.792;2023-09-19T06:12:39;23.70;54.10
30244;DHT22;64022;53.652;9.792;2023-09-19T06:15:05;23.70;53.90
30244;DHT22;64022;53.652;9.792;2023-09-19T06:17:31;23.60;53.90
30244;DHT22;64022;53.652;9.792;2023-09-19T06:19:56;23.60;54.10
30244;DHT22;64022;53.652;9.792;2023-09-19T06:22:22;23.50;54.00
30244;DHT22;64022;53.652;9.792;2023-09-19T06:24:49;23.50;53.90
30244;DHT22;64022;53.652;9.792;2023-09-19T06:27:15;23.50;53.70
30244;DHT22;64022;53.652;9.792;2023-09-19T06:29:40;23.40;53.50
30244;DHT22;64022;53.652;9.792;2023-09-19T06:32:07;23.30;53.40
30244;DHT22;64022;53.652;9.792;2023-09-19T06:34:32;23.30;53.20
30244;DHT22;64022;53.652;9.792;2023-09-19T06:36:58;23.30;53.20
30244;DHT22;64022;53.652;9.792;2023-09-19T06:39:23;23.20;53.10
30244;DHT22;64022;53.652;9.792;2023-09-19T06:41:51;23.20;53.10
30244;DHT22;64022;53.652;9.792;2023-09-19T06:44:19;23.10;53.10
30244;DHT22;64022;53.652;9.792;2023-09-19T06:46:47;23.10;53.00
30244;DHT22;64022;53.652;9.792;2023-09-19T06:49:15;23.10;52.90
30244;DHT22;64022;53.652;9.792;2023-09-19T06:51:40;23.10;53.00
30244;DHT22;64022;53.652;9.792;2023-09-19T06:54:08;23.10;52.90
30244;DHT22;64022;53.652;9.792;2023-09-19T06:56:33;23.00;52.80
30244;DHT22;64022;53.652;9.792;2023-09-19T06:58:59;23.00;52.70
30244;DHT22;64022;53.652;9.792;2023-09-19T07:01:25;23.00;52.70
30244;DHT22;64022;53.652;9.792;2023-09-19T07:03:51;23.00;52.70
30244;DHT22;64022;53.652;9.792;2023-09-19T07:06:18;22.90;52.60
30244;DHT22;64022;53.652;9.792;2023-09-19T07:08:43;22.90;52.60
30244;DHT22;64022;53.652;9.792;2023-09-19T07:11:10;22.90;52.60
30244;DHT22;64022;53.652;9.792;2023-09-19T07:13:37;22.90;52.60
30244;DHT22;64022;53.652;9.792;2023-09-19T07:16:03;22.90;52.60
30244;DHT22;64022;53.652;9.792;2023-09-19T07:18:29;22.80;52.60
30244;DHT22;64022;53.652;9.792;2023-09-19T07:20:57;22.80;52.60
30244;DHT22;64022;53.652;9.792;2023-09-19T07:23:26;22.80;52.60
30244;DHT22;64022;53.652;9.792;2023-09-19T07:25:52;22.80;52.50
30244;DHT22;64022;53.652;9.792;2023-09-19T07:28:17;22.80;52.60
30244;DHT22;64022;53.652;9.792;2023-09-19T07:30:43;22.80;52.50
30244;DHT22;64022;53.652;9.792;2023-09-19T07:33:09;22.70;52.50
30244;DHT22;64022;53.652;9.792;2023-09-19T07:35:36;22.70;52.50
30244;DHT22;64022;53.652;9.792;2023-09-19T07:38:05;22.70;52.60
30244;DHT22;64022;53.652;9.792;2023-09-19T07:40:30;22.70;52.60
30244;DHT22;64022;53.652;9.792;2023-09-19T07:42:56;22.70;52.70
30244;DHT22;64022;53.652;9.792;2023-09-19T07:45:21;22.70;52.60
30244;DHT22;64022;53.652;9.792;2023-09-19T07:47:47;22.70;52.60
30244;DHT22;64022;53.652;9.792;2023-09-19T07:50:13;22.70;52.60
30244;DHT22;64022;53.652;9.792;2023-09-19T07:52:40;22.60;52.60
30244;DHT22;64022;53.652;9.792;2023-09-19T07:55:06;22.60;52.70
30244;DHT22;64022;53.652;9.792;2023-09-19T07:57:35;22.60;52.70
30244;DHT22;64022;53.652;9.792;2023-09-19T08:00:00;22.60;52.80
30244;DHT22;64022;53.652;9.792;2023-09-19T08:02:26;22.60;52.80
30244;DHT22;64022;53.652;9.792;2023-09-19T08:04:53;22.60;52.70
30244;DHT22;64022;53.652;9.792;2023-09-19T08:07:19;22.60;52.60
30244;DHT22;64022;53.652;9.792;2023-09-19T08:09:44;22.60;52.60
30244;DHT22;64022;53.652;9.792;2023-09-19T08:12:11;22.60;52.70
30244;DHT22;64022;53.652;9.792;2023-09-19T08:14:37;22.60;52.70
30244;DHT22;64022;53.652;9.792;2023-09-19T08:17:03;22.60;52.60
30244;DHT22;64022;53.652;9.792;2023-09-19T08:19:31;22.60;52.60
30244;DHT22;64022;53.652;9.792;2023-09-19T08:22:00;22.50;52.60
30244;DHT22;64022;53.652;9.792;2023-09-19T08:24:27;22.50;52.50
30244;DHT22;64022;53.652;9.792;2023-09-19T08:26:57;22.50;52.50
30244;DHT22;64022;53.652;9.792;2023-09-19T08:29:23;22.50;52.60
30244;DHT22;64022;53.652;9.792;2023-09-19T08:32:01;22.50;52.70
30244;DHT22;64022;53.652;9.792;2023-09-19T08:34:27;22.50;52.60
30244;DHT22;64022;53.652;9.792;2023-09-19T08:36:53;22.50;52.60
30244;DHT22;64022;53.652;9.792;2023-09-19T08:39:25;22.50;52.70
30244;DHT22;64022;53.652;9.792;2023-09-19T08:42:00;22.50;52.70
30244;DHT22;64022;53.652;9.792;2023-09-19T08:44:26;22.50;52.70
30244;DHT22;64022;53.652;9.792;2023-09-19T08:46:54;22.50;52.80
30244;DHT22;64022;53.652;9.792;2023-09-19T08:52:12;22.50;52.70
30244;DHT22;64022;53.652;9.792;2023-09-19T08:54:39;22.50;52.70
30244;DHT22;64022;53.652;9.792;2023-09-19T08:57:08;22.50;52.70
30244;DHT22;64022;53.652;9.792;2023-09-19T08:59:37;22.50;52.80
30244;DHT22;64022;53.652;9.792;2023-09-19T09:02:08;22.40;52.80
30244;DHT22;64022;53.652;9.792;2023-09-19T09:04:38;22.50;52.90
30244;DHT22;64022;53.652;9.792;2023-09-19T09:07:06;22.50;52.80
30244;DHT22;64022;53.652;9.792;2023-09-19T09:09:34;22.50;52.90
30244;DHT22;64022;53.652;9.792;2023-09-19T09:12:01;22.40;52.80
30244;DHT22;64022;53.652;9.792;2023-09-19T09:14:27;22.40;52.80
30244;DHT22;64022;53.652;9.792;2023-09-19T09:16:55;22.50;52.90
30244;DHT22;64022;53.652;9.792;2023-09-19T09:19:24;22.40;52.80
30244;DHT22;64022;53.652;9.792;2023-09-19T09:21:50;22.40;52.90
30244;DHT22;64022;53.652;9.792;2023-09-19T09:24:29;22.40;52.80
30244;DHT22;64022;53.652;9.792;2023-09-19T09:26:56;22.50;52.90
30244;DHT22;64022;53.652;9.792;2023-09-19T09:29:39;22.40;52.90
30244;DHT22;64022;53.652;9.792;2023-09-19T09:32:18;22.40;53.00
30244;DHT22;64022;53.652;9.792;2023-09-19T09:34:45;22.40;53.10
30244;DHT22;64022;53.652;9.792;2023-09-19T09:37:14;22.50;53.20
30244;DHT22;64022;53.652;9.792;2023-09-19T09:39:40;22.40;53.10
30244;DHT22;64022;53.652;9.792;2023-09-19T09:42:29;22.50;53.20
30244;DHT22;64022;53.652;9.792;2023-09-19T09:48:02;22.50;53.30
30244;DHT22;64022;53.652;9.792;2023-09-19T09:50:46;22.50;53.30
30244;DHT22;64022;53.652;9.792;2023-09-19T09:53:20;22.60;53.30
30244;DHT22;64022;53.652;9.792;2023-09-19T09:56:05;22.60;53.30
30244;DHT22;64022;53.652;9.792;2023-09-19T09:58:38;22.60;53.30
30244;DHT22;64022;53.652;9.792;2023-09-19T10:01:14;22.60;53.20
30244;DHT22;64022;53.652;9.792;2023-09-19T10:03:41;22.60;53.30
30244;DHT22;64022;53.652;9.792;2023-09-19T10:06:13;22.60;53.20
30244;DHT22;64022;53.652;9.792;2023-09-19T10:09:19;22.60;53.20
30244;DHT22;64022;53.652;9.792;2023-09-19T10:11:49;22.60;53.20
30244;DHT22;64022;53.652;9.792;2023-09-19T10:14:25;22.60;53.20
30244;DHT22;64022;53.652;9.792;2023-09-19T10:16:54;22.60;53.20
30244;DHT22;64022;53.652;9.792;2023-09-19T10:19:29;22.60;53.10
30244;DHT22;64022;53.652;9.792;2023-09-19T10:21:55;22.60;53.10
30244;DHT22;64022;53.652;9.792;2023-09-19T10:24:22;22.60;53.00
30244;DHT22;64022;53.652;9.792;2023-09-19T10:26:50;22.70;53.10
30244;DHT22;64022;53.652;9.792;2023-09-19T10:29:16;22.70;53.10
30244;DHT22;64022;53.652;9.792;2023-09-19T10:31:43;22.60;53.10
30244;DHT22;64022;53.652;9.792;2023-09-19T10:34:15;22.70;53.20
30244;DHT22;64022;53.652;9.792;2023-09-19T10:36:45;22.70;53.20
30244;DHT22;64022;53.652;9.792;2023-09-19T10:39:15;22.70;53.20
30244;DHT22;64022;53.652;9.792;2023-09-19T10:41:47;22.70;53.20
30244;DHT22;64022;53.652;9.792;2023-09-19T10:44:23;22.70;53.20
30244;DHT22;64022;53.652;9.792;2023-09-19T10:46:49;22.70;53.30
30244;DHT22;64022;53.652;9.792;2023-09-19T10:49:14;22.70;53.30
30244;DHT22;64022;53.652;9.792;2023-09-19T10:51:41;22.70;53.30
30244;DHT22;64022;53.652;9.792;2023-09-19T10:54:11;22.70;53.30
30244;DHT22;64022;53.652;9.792;2023-09-19T10:56:41;22.80;53.40
30244;DHT22;64022;53.652;9.792;2023-09-19T10:59:08;22.80;53.40
30244;DHT22;64022;53.652;9.792;2023-09-19T11:07:04;22.80;53.40
30244;DHT22;64022;53.652;9.792;2023-09-19T11:14:54;22.80;53.50
30244;DHT22;64022;53.652;9.792;2023-09-19T11:30:38;22.80;53.70
30244;DHT22;64022;53.652;9.792;2023-09-19T11:36:00;22.90;53.80
30244;DHT22;64022;53.652;9.792;2023-09-19T11:43:50;22.90;54.00
30244;DHT22;64022;53.652;9.792;2023-09-19T11:46:16;22.90;54.00
30244;DHT22;64022;53.652;9.792;2023-09-19T11:48:47;22.90;54.10
30244;DHT22;64022;53.652;9.792;2023-09-19T11:51:17;23.00;54.20
30244;DHT22;64022;53.652;9.792;2023-09-19T11:54:00;23.00;54.20
30244;DHT22;64022;53.652;9.792;2023-09-19T11:56:26;23.00;54.30
30244;DHT22;64022;53.652;9.792;2023-09-19T11:58:57;23.00;54.30
30244;DHT22;64022;53.652;9.792;2023-09-19T12:01:24;23.00;54.40
30244;DHT22;64022;53.652;9.792;2023-09-19T12:03:53;23.00;54.40
30244;DHT22;64022;53.652;9.792;2023-09-19T12:06:19;23.00;54.50
30244;DHT22;64022;53.652;9.792;2023-09-19T12:08:47;23.00;54.50
30244;DHT22;64022;53.652;9.792;2023-09-19T12:11:14;23.00;54.60
30244;DHT22;64022;53.652;9.792;2023-09-19T12:13:43;23.10;54.70
30244;DHT22;64022;53.652;9.792;2023-09-19T12:16:16;23.00;54.60
30244;DHT22;64022;53.652;9.792;2023-09-19T12:18:43;23.00;54.70
30244;DHT22;64022;53.652;9.792;2023-09-19T12:21:25;23.10;54.80
30244;DHT22;64022;53.652;9.792;2023-09-19T12:26:29;23.10;54.90
30244;DHT22;64022;53.652;9.792;2023-09-19T12:28:59;23.10;54.90
30244;DHT22;64022;53.652;9.792;2023-09-19T12:31:27;23.10;54.90
30244;DHT22;64022;53.652;9.792;2023-09-19T12:33:53;23.10;55.00
30244;DHT22;64022;53.652;9.792;2023-09-19T12:36:20;23.10;55.00
30244;DHT22;64022;53.652;9.792;2023-09-19T12:38:50;23.10;55.10
30244;DHT22;64022;53.652;9.792;2023-09-19T12:41:16;23.10;55.10
30244;DHT22;64022;53.652;9.792;2023-09-19T12:43:42;23.10;55.20
30244;DHT22;64022;53.652;9.792;2023-09-19T12:46:08;23.10;55.20
30244;DHT22;64022;53.652;9.792;2023-09-19T12:48:33;23.20;55.30
30244;DHT22;64022;53.652;9.792;2023-09-19T12:51:00;23.10;55.40
30244;DHT22;64022;53.652;9.792;2023-09-19T12:53:26;23.10;55.30
30244;DHT22;64022;53.652;9.792;2023-09-19T12:55:57;23.10;55.30
30244;DHT22;64022;53.652;9.792;2023-09-19T12:58:23;23.10;55.30
30244;DHT22;64022;53.652;9.792;2023-09-19T13:00:48;23.20;55.40
30244;DHT22;64022;53.652;9.792;2023-09-19T13:05:48;23.20;55.50
30244;DHT22;64022;53.652;9.792;2023-09-19T13:08:18;23.20;55.50
30244;DHT22;64022;53.652;9.792;2023-09-19T13:13:35;23.20;55.60
30244;DHT22;64022;53.652;9.792;2023-09-19T13:16:02;23.20;55.60
30244;DHT22;64022;53.652;9.792;2023-09-19T13:18:27;23.20;55.60
30244;DHT22;64022;53.652;9.792;2023-09-19T13:21:06;23.20;55.70
30244;DHT22;64022;53.652;9.792;2023-09-19T13:23:35;23.20;55.70
30244;DHT22;64022;53.652;9.792;2023-09-19T13:26:02;23.20;55.70
30244;DHT22;64022;53.652;9.792;2023-09-19T13:28:29;23.20;55.70
30244;DHT22;64022;53.652;9.792;2023-09-19T13:30:55;23.20;55.70
30244;DHT22;64022;53.652;9.792;2023-09-19T13:33:20;23.20;55.80
30244;DHT22;64022;53.652;9.792;2023-09-19T13:35:47;23.30;55.80
30244;DHT22;64022;53.652;9.792;2023-09-19T13:38:13;23.30;55.90
30244;DHT22;64022;53.652;9.792;2023-09-19T13:40:39;23.20;55.80
30244;DHT22;64022;53.652;9.792;2023-09-19T13:43:07;23.20;55.80
30244;DHT22;64022;53.652;9.792;2023-09-19T13:45:32;23.30;55.90
30244;DHT22;64022;53.652;9.792;2023-09-19T13:47:58;23.30;55.90
30244;DHT22;64022;53.652;9.792;2023-09-19T13:50:26;23.30;55.90
30244;DHT22;64022;53.652;9.792;2023-09-19T13:52:54;23.30;56.00
30244;DHT22;64022;53.652;9.792;2023-09-19T13:55:19;23.30;56.00
30244;DHT22;64022;53.652;9.792;2023-09-19T13:57:48;23.30;56.00
30244;DHT22;64022;53.652;9.792;2023-09-19T14:00:20;23.30;56.00
30244;DHT22;64022;53.652;9.792;2023-09-19T14:02:45;23.30;56.00
30244;DHT22;64022;53.652;9.792;2023-09-19T14:05:12;23.30;56.00
30244;DHT22;64022;53.652;9.792;2023-09-19T14:07:43;23.30;56.00
30244;DHT22;64022;53.652;9.792;2023-09-19T14:10:09;23.30;56.10
30244;DHT22;64022;53.652;9.792;2023-09-19T14:12:36;23.30;56.10
30244;DHT22;64022;53.652;9.792;2023-09-19T14:15:02;23.30;56.10
30244;DHT22;64022;53.652;9.792;2023-09-19T14:17:28;23.30;56.10
30244;DHT22;64022;53.652;9.792;2023-09-19T14:19:54;23.40;56.20
30244;DHT22;64022;53.652;9.792;2023-09-19T14:22:19;23.30;56.10
30244;DHT22;64022;53.652;9.792;2023-09-19T14:24:45;23.30;56.10
30244;DHT22;64022;53.652;9.792;2023-09-19T14:27:10;23.40;56.20
30244;DHT22;64022;53.652;9.792;2023-09-19T14:29:36;23.30;56.10
30244;DHT22;64022;53.652;9.792;2023-09-19T14:32:02;23.30;56.20
30244;DHT22;64022;53.652;9.792;2023-09-19T14:34:27;23.40;56.20
30244;DHT22;64022;53.652;9.792;2023-09-19T14:36:53;23.40;56.10
30244;DHT22;64022;53.652;9.792;2023-09-19T14:39:19;23.40;56.00
30244;DHT22;64022;53.652;9.792;2023-09-19T14:41:45;23.30;56.40
30244;DHT22;64022;53.652;9.792;2023-09-19T14:44:10;23.30;55.80
30244;DHT22;64022;53.652;9.792;2023-09-19T14:46:36;23.30;55.70
30244;DHT22;64022;53.652;9.792;2023-09-19T14:49:02;23.30;55.70
30244;DHT22;64022;53.652;9.792;2023-09-19T14:51:29;23.30;55.70
30244;DHT22;64022;53.652;9.792;2023-09-19T14:53:55;23.30;55.70
30244;DHT22;64022;53.652;9.792;2023-09-19T14:56:21;23.30;55.60
30244;DHT22;64022;53.652;9.792;2023-09-19T14:58:49;23.40;55.70
30244;DHT22;64022;53.652;9.792;2023-09-19T15:01:14;23.40;55.60
30244;DHT22;64022;53.652;9.792;2023-09-19T15:03:41;23.40;55.60
30244;DHT22;64022;53.652;9.792;2023-09-19T15:06:11;23.40;55.60
30244;DHT22;64022;53.652;9.792;2023-09-19T15:08:45;23.40;55.60
30244;DHT22;64022;53.652;9.792;2023-09-19T15:11:14;23.40;55.60
30244;DHT22;64022;53.652;9.792;2023-09-19T15:13:42;23.40;55.60
30244;DHT22;64022;53.652;9.792;2023-09-19T15:16:08;23.40;55.60
30244;DHT22;64022;53.652;9.792;2023-09-19T15:18:37;23.40;55.60
30244;DHT22;64022;53.652;9.792;2023-09-19T15:21:06;23.40;55.60
30244;DHT22;64022;53.652;9.792;2023-09-19T15:23:35;23.40;55.60
30244;DHT22;64022;53.652;9.792;2023-09-19T15:26:04;23.40;55.60
30244;DHT22;64022;53.652;9.792;2023-09-19T15:28:30;23.50;55.60
30244;DHT22;64022;53.652;9.792;2023-09-19T15:31:04;23.40;55.60
30244;DHT22;64022;53.652;9.792;2023-09-19T15:33:30;23.40;55.60
30244;DHT22;64022;53.652;9.792;2023-09-19T15:36:09;23.50;55.60
30244;DHT22;64022;53.652;9.792;2023-09-19T15:41:17;23.50;55.70
30244;DHT22;64022;53.652;9.792;2023-09-19T15:43:42;23.50;55.70
30244;DHT22;64022;53.652;9.792;2023-09-19T15:46:08;23.50;55.70
30244;DHT22;64022;53.652;9.792;2023-09-19T15:48:33;23.50;55.70
30244;DHT22;64022;53.652;9.792;2023-09-19T15:51:02;23.50;55.70
30244;DHT22;64022;53.652;9.792;2023-09-19T15:53:29;23.50;55.70
30244;DHT22;64022;53.652;9.792;2023-09-19T15:55:56;23.50;55.70
30244;DHT22;64022;53.652;9.792;2023-09-19T15:58:21;23.50;55.70
30244;DHT22;64022;53.652;9.792;2023-09-19T16:00:47;23.50;55.70
30244;DHT22;64022;53.652;9.792;2023-09-19T16:03:13;23.50;55.80
30244;DHT22;64022;53.652;9.792;2023-09-19T16:05:39;23.50;55.80
30244;DHT22;64022;53.652;9.792;2023-09-19T16:08:08;23.50;55.80
30244;DHT22;64022;53.652;9.792;2023-09-19T16:10:34;23.60;55.80
30244;DHT22;64022;53.652;9.792;2023-09-19T16:12:59;23.60;55.90
30244;DHT22;64022;53.652;9.792;2023-09-19T16:15:25;23.60;55.90
30244;DHT22;64022;53.652;9.792;2023-09-19T16:17:50;23.60;55.90
30244;DHT22;64022;53.652;9.792;2023-09-19T16:20:16;23.60;55.90
30244;DHT22;64022;53.652;9.792;2023-09-19T16:22:42;23.60;55.90
30244;DHT22;64022;53.652;9.792;2023-09-19T16:25:10;23.60;55.90
30244;DHT22;64022;53.652;9.792;2023-09-19T16:27:37;23.60;55.90
30244;DHT22;64022;53.652;9.792;2023-09-19T16:30:02;23.60;55.90
30244;DHT22;64022;53.652;9.792;2023-09-19T16:32:28;23.60;55.90
30244;DHT22;64022;53.652;9.792;2023-09-19T16:34:53;23.60;55.90
30244;DHT22;64022;53.652;9.792;2023-09-19T16:37:19;23.60;55.90